In Rescue
 
Open Full Screen Window  High Contrast Mode
Wind Gusting 00 knots
07
April 19, 2021 7:02 PM CDT
Weather Information
Wind Direction
  330 °
Wind Speed
  07 kt (8 mph)
Wind Gust
  00 kt (0 mph)
Altimeter
30.03 in
Visibility
10 SM
Temperature
02° C
36° F
Dewpoint
-08° C
18° F
Humidity
48%
1hr Rain Fall
00.00 in.
24hr Rain Fall
00.00 in.
Sky Condition
Overcast @ 6,500 ft
VFR

METAR KROS 200002Z AUTO 33007KT 10SM OVC065 02/M08 A3003 RMK AO2

FAA Disclaimer: The data displayed is for advisory purposes only and is not to be used for flight planning or operations.